sensor_id;sensor_type;location;lat;lon;timestamp;P1;durP1;ratioP1;P2;durP2;ratioP2
70920;SDS011;58572;48.110;19.838;2023-08-24T00:01:44;9.48;;;6.60;;
70920;SDS011;58572;48.110;19.838;2023-08-24T00:04:11;8.32;;;5.85;;
70920;SDS011;58572;48.110;19.838;2023-08-24T00:06:38;9.23;;;6.82;;
70920;SDS011;58572;48.110;19.838;2023-08-24T00:09:06;10.57;;;6.95;;
70920;SDS011;58572;48.110;19.838;2023-08-24T00:11:34;11.25;;;7.15;;
70920;SDS011;58572;48.110;19.838;2023-08-24T00:14:01;10.07;;;6.95;;
70920;SDS011;58572;48.110;19.838;2023-08-24T00:16:28;14.63;;;7.80;;
70920;SDS011;58572;48.110;19.838;2023-08-24T00:18:55;11.38;;;7.40;;
70920;SDS011;58572;48.110;19.838;2023-08-24T00:21:22;13.13;;;7.80;;
70920;SDS011;58572;48.110;19.838;2023-08-24T00:23:49;11.27;;;7.25;;
70920;SDS011;58572;48.110;19.838;2023-08-24T00:26:19;13.02;;;7.90;;
70920;SDS011;58572;48.110;19.838;2023-08-24T00:28:46;9.98;;;6.93;;
70920;SDS011;58572;48.110;19.838;2023-08-24T00:33:43;11.52;;;7.10;;
70920;SDS011;58572;48.110;19.838;2023-08-24T00:38:37;9.55;;;6.45;;
70920;SDS011;58572;48.110;19.838;2023-08-24T00:41:04;9.93;;;7.07;;
70920;SDS011;58572;48.110;19.838;2023-08-24T00:43:33;10.90;;;6.72;;
70920;SDS011;58572;48.110;19.838;2023-08-24T00:46:01;11.10;;;6.95;;
70920;SDS011;58572;48.110;19.838;2023-08-24T00:48:29;10.63;;;6.47;;
70920;SDS011;58572;48.110;19.838;2023-08-24T00:50:59;10.90;;;7.15;;
70920;SDS011;58572;48.110;19.838;2023-08-24T00:53:28;9.15;;;6.45;;
70920;SDS011;58572;48.110;19.838;2023-08-24T00:55:56;12.40;;;7.00;;
70920;SDS011;58572;48.110;19.838;2023-08-24T00:58:24;10.30;;;6.88;;
70920;SDS011;58572;48.110;19.838;2023-08-24T01:00:55;11.45;;;6.68;;
70920;SDS011;58572;48.110;19.838;2023-08-24T01:03:23;8.07;;;6.05;;
70920;SDS011;58572;48.110;19.838;2023-08-24T01:05:51;11.00;;;7.28;;
70920;SDS011;58572;48.110;19.838;2023-08-24T01:10:47;11.60;;;7.38;;
70920;SDS011;58572;48.110;19.838;2023-08-24T01:13:21;10.43;;;7.60;;
70920;SDS011;58572;48.110;19.838;2023-08-24T01:15:58;10.35;;;7.28;;
70920;SDS011;58572;48.110;19.838;2023-08-24T01:18:30;11.70;;;7.50;;
70920;SDS011;58572;48.110;19.838;2023-08-24T01:21:01;13.63;;;8.38;;
70920;SDS011;58572;48.110;19.838;2023-08-24T01:23:32;12.85;;;7.95;;
70920;SDS011;58572;48.110;19.838;2023-08-24T01:26:13;9.73;;;6.85;;
70920;SDS011;58572;48.110;19.838;2023-08-24T01:28:43;12.00;;;7.47;;
70920;SDS011;58572;48.110;19.838;2023-08-24T01:31:11;10.43;;;6.88;;
70920;SDS011;58572;48.110;19.838;2023-08-24T01:33:40;10.10;;;6.90;;
70920;SDS011;58572;48.110;19.838;2023-08-24T01:36:07;11.27;;;6.95;;
70920;SDS011;58572;48.110;19.838;2023-08-24T01:38:35;10.98;;;6.70;;
70920;SDS011;58572;48.110;19.838;2023-08-24T01:41:06;10.95;;;6.60;;
70920;SDS011;58572;48.110;19.838;2023-08-24T01:43:39;8.75;;;6.38;;
70920;SDS011;58572;48.110;19.838;2023-08-24T01:46:08;10.50;;;6.72;;
70920;SDS011;58572;48.110;19.838;2023-08-24T01:48:36;9.07;;;6.65;;
70920;SDS011;58572;48.110;19.838;2023-08-24T01:51:05;10.02;;;6.43;;
70920;SDS011;58572;48.110;19.838;2023-08-24T01:53:33;11.48;;;6.93;;
70920;SDS011;58572;48.110;19.838;2023-08-24T01:56:02;11.95;;;7.30;;
70920;SDS011;58572;48.110;19.838;2023-08-24T01:58:35;11.77;;;7.20;;
70920;SDS011;58572;48.110;19.838;2023-08-24T02:03:31;9.90;;;7.05;;
70920;SDS011;58572;48.110;19.838;2023-08-24T02:08:25;11.63;;;7.00;;
70920;SDS011;58572;48.110;19.838;2023-08-24T02:13:19;11.00;;;8.05;;
70920;SDS011;58572;48.110;19.838;2023-08-24T02:15:46;14.95;;;8.73;;
70920;SDS011;58572;48.110;19.838;2023-08-24T02:18:14;11.57;;;7.95;;
70920;SDS011;58572;48.110;19.838;2023-08-24T02:20:42;11.77;;;8.07;;
70920;SDS011;58572;48.110;19.838;2023-08-24T02:25:41;12.38;;;8.27;;
70920;SDS011;58572;48.110;19.838;2023-08-24T02:28:09;16.27;;;8.65;;
70920;SDS011;58572;48.110;19.838;2023-08-24T02:30:37;12.30;;;8.65;;
70920;SDS011;58572;48.110;19.838;2023-08-24T02:33:04;13.38;;;9.23;;
70920;SDS011;58572;48.110;19.838;2023-08-24T02:35:34;12.48;;;8.10;;
70920;SDS011;58572;48.110;19.838;2023-08-24T02:38:01;10.73;;;7.55;;
70920;SDS011;58572;48.110;19.838;2023-08-24T02:40:29;11.43;;;7.55;;
70920;SDS011;58572;48.110;19.838;2023-08-24T02:42:56;14.63;;;7.45;;
70920;SDS011;58572;48.110;19.838;2023-08-24T02:47:51;11.93;;;7.63;;
70920;SDS011;58572;48.110;19.838;2023-08-24T02:50:18;11.80;;;7.32;;
70920;SDS011;58572;48.110;19.838;2023-08-24T02:52:47;12.23;;;7.88;;
70920;SDS011;58572;48.110;19.838;2023-08-24T02:55:14;12.05;;;7.40;;
70920;SDS011;58572;48.110;19.838;2023-08-24T02:57:42;10.73;;;7.38;;
70920;SDS011;58572;48.110;19.838;2023-08-24T03:00:09;8.82;;;6.55;;
70920;SDS011;58572;48.110;19.838;2023-08-24T03:02:38;10.23;;;7.47;;
70920;SDS011;58572;48.110;19.838;2023-08-24T03:05:06;13.63;;;8.20;;
70920;SDS011;58572;48.110;19.838;2023-08-24T03:07:33;12.20;;;8.20;;
70920;SDS011;58572;48.110;19.838;2023-08-24T03:10:02;15.57;;;8.63;;
70920;SDS011;58572;48.110;19.838;2023-08-24T03:12:30;10.43;;;7.18;;
70920;SDS011;58572;48.110;19.838;2023-08-24T03:14:57;13.50;;;8.05;;
70920;SDS011;58572;48.110;19.838;2023-08-24T03:17:24;13.02;;;8.75;;
70920;SDS011;58572;48.110;19.838;2023-08-24T03:19:52;15.35;;;10.00;;
70920;SDS011;58572;48.110;19.838;2023-08-24T03:22:19;12.88;;;8.80;;
70920;SDS011;58572;48.110;19.838;2023-08-24T03:24:47;11.10;;;8.65;;
70920;SDS011;58572;48.110;19.838;2023-08-24T03:29:42;12.80;;;9.10;;
70920;SDS011;58572;48.110;19.838;2023-08-24T03:32:09;14.88;;;10.07;;
70920;SDS011;58572;48.110;19.838;2023-08-24T03:34:37;15.07;;;9.77;;
70920;SDS011;58572;48.110;19.838;2023-08-24T03:37:05;14.63;;;10.23;;
70920;SDS011;58572;48.110;19.838;2023-08-24T03:39:32;15.52;;;10.63;;
70920;SDS011;58572;48.110;19.838;2023-08-24T03:41:59;16.70;;;10.82;;
70920;SDS011;58572;48.110;19.838;2023-08-24T03:46:55;13.52;;;8.90;;
70920;SDS011;58572;48.110;19.838;2023-08-24T03:49:22;13.40;;;9.07;;
70920;SDS011;58572;48.110;19.838;2023-08-24T03:51:51;13.27;;;8.85;;
70920;SDS011;58572;48.110;19.838;2023-08-24T03:56:45;13.05;;;8.95;;
70920;SDS011;58572;48.110;19.838;2023-08-24T03:59:12;15.07;;;9.13;;
70920;SDS011;58572;48.110;19.838;2023-08-24T04:04:08;13.27;;;8.43;;
70920;SDS011;58572;48.110;19.838;2023-08-24T04:09:03;12.05;;;8.20;;
70920;SDS011;58572;48.110;19.838;2023-08-24T04:11:31;14.15;;;8.55;;
70920;SDS011;58572;48.110;19.838;2023-08-24T04:13:58;10.43;;;8.20;;
70920;SDS011;58572;48.110;19.838;2023-08-24T04:16:26;14.98;;;8.27;;
70920;SDS011;58572;48.110;19.838;2023-08-24T04:18:54;13.30;;;8.18;;
70920;SDS011;58572;48.110;19.838;2023-08-24T04:21:22;13.38;;;8.40;;
70920;SDS011;58572;48.110;19.838;2023-08-24T04:26:16;10.02;;;7.47;;
70920;SDS011;58572;48.110;19.838;2023-08-24T04:31:10;13.45;;;8.50;;
70920;SDS011;58572;48.110;19.838;2023-08-24T04:33:37;12.20;;;9.30;;
70920;SDS011;58572;48.110;19.838;2023-08-24T04:38:33;12.70;;;9.05;;
70920;SDS011;58572;48.110;19.838;2023-08-24T04:41:00;13.55;;;8.32;;
70920;SDS011;58572;48.110;19.838;2023-08-24T04:43:32;11.82;;;8.70;;
70920;SDS011;58572;48.110;19.838;2023-08-24T04:46:01;13.77;;;9.35;;
70920;SDS011;58572;48.110;19.838;2023-08-24T04:48:29;12.35;;;8.93;;
70920;SDS011;58572;48.110;19.838;2023-08-24T04:50:59;14.30;;;9.45;;
70920;SDS011;58572;48.110;19.838;2023-08-24T04:53:28;12.57;;;8.52;;
70920;SDS011;58572;48.110;19.838;2023-08-24T04:55:55;13.23;;;8.63;;
70920;SDS011;58572;48.110;19.838;2023-08-24T05:00:50;13.63;;;10.25;;
70920;SDS011;58572;48.110;19.838;2023-08-24T05:03:17;15.63;;;11.68;;
70920;SDS011;58572;48.110;19.838;2023-08-24T05:05:46;14.48;;;9.48;;
70920;SDS011;58572;48.110;19.838;2023-08-24T05:08:14;14.75;;;10.60;;
70920;SDS011;58572;48.110;19.838;2023-08-24T05:13:10;12.75;;;9.18;;
70920;SDS011;58572;48.110;19.838;2023-08-24T05:15:37;11.63;;;8.82;;
70920;SDS011;58572;48.110;19.838;2023-08-24T05:18:05;13.30;;;9.20;;
70920;SDS011;58572;48.110;19.838;2023-08-24T05:20:32;11.52;;;9.10;;
70920;SDS011;58572;48.110;19.838;2023-08-24T05:22:59;11.60;;;8.45;;
70920;SDS011;58572;48.110;19.838;2023-08-24T05:25:26;13.65;;;9.43;;
70920;SDS011;58572;48.110;19.838;2023-08-24T05:27:55;13.88;;;9.52;;
70920;SDS011;58572;48.110;19.838;2023-08-24T05:30:23;12.60;;;8.85;;
70920;SDS011;58572;48.110;19.838;2023-08-24T05:32:54;13.82;;;9.45;;
70920;SDS011;58572;48.110;19.838;2023-08-24T05:35:21;13.80;;;9.60;;
70920;SDS011;58572;48.110;19.838;2023-08-24T05:37:49;13.27;;;9.98;;
70920;SDS011;58572;48.110;19.838;2023-08-24T05:40:16;13.23;;;9.57;;
70920;SDS011;58572;48.110;19.838;2023-08-24T05:42:43;11.63;;;8.43;;
70920;SDS011;58572;48.110;19.838;2023-08-24T05:45:12;12.50;;;8.93;;
70920;SDS011;58572;48.110;19.838;2023-08-24T05:47:39;15.95;;;9.20;;
70920;SDS011;58572;48.110;19.838;2023-08-24T05:52:34;12.23;;;8.60;;
70920;SDS011;58572;48.110;19.838;2023-08-24T05:55:01;14.27;;;8.65;;
70920;SDS011;58572;48.110;19.838;2023-08-24T05:57:28;11.90;;;8.85;;
70920;SDS011;58572;48.110;19.838;2023-08-24T05:59:55;15.13;;;10.20;;
70920;SDS011;58572;48.110;19.838;2023-08-24T06:02:24;12.82;;;9.77;;
70920;SDS011;58572;48.110;19.838;2023-08-24T06:04:52;13.43;;;9.68;;
70920;SDS011;58572;48.110;19.838;2023-08-24T06:07:19;12.68;;;9.93;;
70920;SDS011;58572;48.110;19.838;2023-08-24T06:09:46;12.63;;;9.55;;
70920;SDS011;58572;48.110;19.838;2023-08-24T06:12:14;13.05;;;9.52;;
70920;SDS011;58572;48.110;19.838;2023-08-24T06:17:08;17.00;;;11.93;;
70920;SDS011;58572;48.110;19.838;2023-08-24T06:22:03;14.50;;;9.95;;
70920;SDS011;58572;48.110;19.838;2023-08-24T06:24:31;15.30;;;11.00;;
70920;SDS011;58572;48.110;19.838;2023-08-24T06:29:25;14.75;;;9.93;;
70920;SDS011;58572;48.110;19.838;2023-08-24T06:31:54;17.27;;;10.85;;
70920;SDS011;58572;48.110;19.838;2023-08-24T06:34:21;13.63;;;10.13;;
70920;SDS011;58572;48.110;19.838;2023-08-24T06:36:52;16.38;;;11.60;;
70920;SDS011;58572;48.110;19.838;2023-08-24T06:39:21;17.02;;;10.90;;
70920;SDS011;58572;48.110;19.838;2023-08-24T06:41:50;15.70;;;12.02;;
70920;SDS011;58572;48.110;19.838;2023-08-24T06:44:17;15.55;;;11.38;;
70920;SDS011;58572;48.110;19.838;2023-08-24T06:46:44;15.32;;;11.30;;
70920;SDS011;58572;48.110;19.838;2023-08-24T06:51:38;14.95;;;10.48;;
70920;SDS011;58572;48.110;19.838;2023-08-24T06:54:07;14.85;;;11.07;;
70920;SDS011;58572;48.110;19.838;2023-08-24T06:56:35;15.20;;;11.85;;
70920;SDS011;58572;48.110;19.838;2023-08-24T06:59:02;17.08;;;11.88;;
70920;SDS011;58572;48.110;19.838;2023-08-24T07:03:57;16.38;;;11.63;;
70920;SDS011;58572;48.110;19.838;2023-08-24T07:06:24;16.83;;;11.23;;
70920;SDS011;58572;48.110;19.838;2023-08-24T07:08:51;14.90;;;11.65;;
70920;SDS011;58572;48.110;19.838;2023-08-24T07:11:20;18.17;;;13.02;;
70920;SDS011;58572;48.110;19.838;2023-08-24T07:13:48;19.13;;;12.30;;
70920;SDS011;58572;48.110;19.838;2023-08-24T07:18:43;15.90;;;11.88;;
70920;SDS011;58572;48.110;19.838;2023-08-24T07:23:37;15.52;;;12.10;;
70920;SDS011;58572;48.110;19.838;2023-08-24T07:26:05;17.98;;;13.25;;
70920;SDS011;58572;48.110;19.838;2023-08-24T07:28:35;18.92;;;12.75;;
70920;SDS011;58572;48.110;19.838;2023-08-24T07:31:06;15.65;;;12.05;;
70920;SDS011;58572;48.110;19.838;2023-08-24T07:36:03;15.80;;;10.88;;
70920;SDS011;58572;48.110;19.838;2023-08-24T07:38:31;16.30;;;11.77;;
70920;SDS011;58572;48.110;19.838;2023-08-24T07:40:59;16.27;;;11.50;;
70920;SDS011;58572;48.110;19.838;2023-08-24T07:45:54;16.13;;;11.13;;
70920;SDS011;58572;48.110;19.838;2023-08-24T07:48:24;19.15;;;13.13;;
70920;SDS011;58572;48.110;19.838;2023-08-24T07:53:18;14.70;;;11.25;;
70920;SDS011;58572;48.110;19.838;2023-08-24T07:55:46;19.17;;;12.75;;
70920;SDS011;58572;48.110;19.838;2023-08-24T07:58:13;16.20;;;11.80;;
70920;SDS011;58572;48.110;19.838;2023-08-24T08:00:40;16.55;;;11.95;;
70920;SDS011;58572;48.110;19.838;2023-08-24T08:03:09;19.38;;;12.20;;
70920;SDS011;58572;48.110;19.838;2023-08-24T08:05:36;19.25;;;12.65;;
70920;SDS011;58572;48.110;19.838;2023-08-24T08:10:31;16.63;;;11.88;;
70920;SDS011;58572;48.110;19.838;2023-08-24T08:12:58;17.27;;;10.95;;
70920;SDS011;58572;48.110;19.838;2023-08-24T08:15:25;14.18;;;10.55;;
70920;SDS011;58572;48.110;19.838;2023-08-24T08:17:52;18.33;;;11.57;;
70920;SDS011;58572;48.110;19.838;2023-08-24T08:22:47;15.95;;;11.25;;
70920;SDS011;58572;48.110;19.838;2023-08-24T08:25:15;21.38;;;11.60;;
70920;SDS011;58572;48.110;19.838;2023-08-24T08:27:43;13.80;;;10.90;;
70920;SDS011;58572;48.110;19.838;2023-08-24T08:32:38;13.35;;;9.85;;
70920;SDS011;58572;48.110;19.838;2023-08-24T08:37:34;14.05;;;10.90;;
70920;SDS011;58572;48.110;19.838;2023-08-24T08:40:02;14.48;;;10.95;;
70920;SDS011;58572;48.110;19.838;2023-08-24T08:42:31;13.27;;;10.35;;
70920;SDS011;58572;48.110;19.838;2023-08-24T08:44:59;15.27;;;11.23;;
70920;SDS011;58572;48.110;19.838;2023-08-24T08:47:29;16.08;;;10.32;;
70920;SDS011;58572;48.110;19.838;2023-08-24T08:49:57;14.75;;;11.32;;
70920;SDS011;58572;48.110;19.838;2023-08-24T08:52:26;16.80;;;11.68;;
70920;SDS011;58572;48.110;19.838;2023-08-24T08:54:55;13.50;;;10.57;;
70920;SDS011;58572;48.110;19.838;2023-08-24T08:57:24;13.18;;;9.98;;
70920;SDS011;58572;48.110;19.838;2023-08-24T08:59:52;14.25;;;11.18;;
70920;SDS011;58572;48.110;19.838;2023-08-24T09:02:20;14.57;;;11.20;;
70920;SDS011;58572;48.110;19.838;2023-08-24T09:04:49;14.65;;;11.65;;
70920;SDS011;58572;48.110;19.838;2023-08-24T09:07:18;18.77;;;11.05;;
70920;SDS011;58572;48.110;19.838;2023-08-24T09:09:46;75.57;;;16.48;;
70920;SDS011;58572;48.110;19.838;2023-08-24T09:12:14;20.75;;;11.73;;
70920;SDS011;58572;48.110;19.838;2023-08-24T09:14:42;39.70;;;15.48;;
70920;SDS011;58572;48.110;19.838;2023-08-24T09:19:36;15.57;;;10.55;;
70920;SDS011;58572;48.110;19.838;2023-08-24T09:22:04;16.55;;;11.32;;
70920;SDS011;58572;48.110;19.838;2023-08-24T09:24:32;13.95;;;11.00;;
70920;SDS011;58572;48.110;19.838;2023-08-24T09:27:04;15.05;;;10.60;;
70920;SDS011;58572;48.110;19.838;2023-08-24T09:29:48;16.75;;;11.18;;
70920;SDS011;58572;48.110;19.838;2023-08-24T09:32:24;14.57;;;10.68;;
70920;SDS011;58572;48.110;19.838;2023-08-24T09:35:03;13.73;;;10.70;;
70920;SDS011;58572;48.110;19.838;2023-08-24T09:37:38;13.73;;;10.77;;
70920;SDS011;58572;48.110;19.838;2023-08-24T09:40:12;18.60;;;11.07;;
70920;SDS011;58572;48.110;19.838;2023-08-24T09:45:19;14.95;;;9.98;;
70920;SDS011;58572;48.110;19.838;2023-08-24T09:47:51;17.42;;;10.93;;
70920;SDS011;58572;48.110;19.838;2023-08-24T09:50:22;14.75;;;9.75;;
70920;SDS011;58572;48.110;19.838;2023-08-24T09:52:54;12.93;;;9.68;;
70920;SDS011;58572;48.110;19.838;2023-08-24T09:55:32;14.40;;;9.52;;
70920;SDS011;58572;48.110;19.838;2023-08-24T09:58:13;13.57;;;10.60;;
70920;SDS011;58572;48.110;19.838;2023-08-24T10:00:46;12.57;;;9.00;;
70920;SDS011;58572;48.110;19.838;2023-08-24T10:03:20;15.43;;;9.50;;
70920;SDS011;58572;48.110;19.838;2023-08-24T10:05:53;12.93;;;9.20;;
70920;SDS011;58572;48.110;19.838;2023-08-24T10:08:28;20.52;;;10.15;;
70920;SDS011;58572;48.110;19.838;2023-08-24T10:11:05;13.48;;;9.35;;
70920;SDS011;58572;48.110;19.838;2023-08-24T10:13:43;12.65;;;9.10;;
70920;SDS011;58572;48.110;19.838;2023-08-24T10:16:22;13.77;;;9.23;;
70920;SDS011;58572;48.110;19.838;2023-08-24T10:18:54;13.35;;;9.35;;
70920;SDS011;58572;48.110;19.838;2023-08-24T10:21:27;12.55;;;9.00;;
70920;SDS011;58572;48.110;19.838;2023-08-24T10:24:00;17.10;;;9.13;;
70920;SDS011;58572;48.110;19.838;2023-08-24T10:26:33;14.35;;;8.48;;
70920;SDS011;58572;48.110;19.838;2023-08-24T10:29:09;12.70;;;8.98;;
70920;SDS011;58572;48.110;19.838;2023-08-24T10:31:46;12.65;;;7.95;;
70920;SDS011;58572;48.110;19.838;2023-08-24T10:34:20;11.05;;;8.27;;
70920;SDS011;58572;48.110;19.838;2023-08-24T10:36:52;11.90;;;8.25;;
70920;SDS011;58572;48.110;19.838;2023-08-24T10:39:29;12.43;;;8.75;;
70920;SDS011;58572;48.110;19.838;2023-08-24T10:42:04;11.45;;;7.90;;
70920;SDS011;58572;48.110;19.838;2023-08-24T10:44:50;14.10;;;8.77;;
70920;SDS011;58572;48.110;19.838;2023-08-24T10:47:21;11.88;;;8.35;;
70920;SDS011;58572;48.110;19.838;2023-08-24T10:49:58;12.23;;;8.93;;
70920;SDS011;58572;48.110;19.838;2023-08-24T10:52:31;11.70;;;7.97;;
70920;SDS011;58572;48.110;19.838;2023-08-24T10:58:03;12.18;;;8.90;;
70920;SDS011;58572;48.110;19.838;2023-08-24T11:00:38;14.60;;;8.55;;
70920;SDS011;58572;48.110;19.838;2023-08-24T11:03:31;11.50;;;8.20;;
70920;SDS011;58572;48.110;19.838;2023-08-24T11:06:20;12.40;;;8.50;;
70920;SDS011;58572;48.110;19.838;2023-08-24T11:09:05;14.73;;;8.90;;
70920;SDS011;58572;48.110;19.838;2023-08-24T11:11:43;12.07;;;8.43;;
70920;SDS011;58572;48.110;19.838;2023-08-24T11:14:28;12.52;;;8.98;;
70920;SDS011;58572;48.110;19.838;2023-08-24T11:17:17;12.38;;;8.48;;
70920;SDS011;58572;48.110;19.838;2023-08-24T11:19:52;12.70;;;8.10;;
70920;SDS011;58572;48.110;19.838;2023-08-24T11:22:25;12.25;;;8.60;;
70920;SDS011;58572;48.110;19.838;2023-08-24T11:24:52;12.30;;;8.20;;
70920;SDS011;58572;48.110;19.838;2023-08-24T11:27:20;11.05;;;8.27;;
70920;SDS011;58572;48.110;19.838;2023-08-24T11:29:53;11.82;;;8.68;;
70920;SDS011;58572;48.110;19.838;2023-08-24T11:32:26;10.82;;;8.30;;
70920;SDS011;58572;48.110;19.838;2023-08-24T11:34:53;11.32;;;8.20;;
70920;SDS011;58572;48.110;19.838;2023-08-24T11:37:21;11.88;;;8.43;;
70920;SDS011;58572;48.110;19.838;2023-08-24T11:39:48;10.13;;;7.70;;
70920;SDS011;58572;48.110;19.838;2023-08-24T11:42:15;10.55;;;7.43;;
70920;SDS011;58572;48.110;19.838;2023-08-24T11:47:13;12.40;;;8.05;;
70920;SDS011;58572;48.110;19.838;2023-08-24T11:49:41;10.65;;;7.93;;
70920;SDS011;58572;48.110;19.838;2023-08-24T11:52:09;10.00;;;7.90;;
70920;SDS011;58572;48.110;19.838;2023-08-24T11:54:36;11.45;;;8.18;;
70920;SDS011;58572;48.110;19.838;2023-08-24T11:57:05;12.73;;;7.65;;
70920;SDS011;58572;48.110;19.838;2023-08-24T11:59:33;10.93;;;8.65;;
70920;SDS011;58572;48.110;19.838;2023-08-24T12:02:01;11.30;;;7.53;;
70920;SDS011;58572;48.110;19.838;2023-08-24T12:04:37;10.70;;;7.75;;
70920;SDS011;58572;48.110;19.838;2023-08-24T12:07:09;10.52;;;8.27;;
70920;SDS011;58572;48.110;19.838;2023-08-24T12:09:37;11.77;;;7.78;;
70920;SDS011;58572;48.110;19.838;2023-08-24T12:12:05;11.23;;;7.63;;
70920;SDS011;58572;48.110;19.838;2023-08-24T12:14:39;10.93;;;7.35;;
70920;SDS011;58572;48.110;19.838;2023-08-24T12:17:07;9.75;;;7.22;;
70920;SDS011;58572;48.110;19.838;2023-08-24T12:19:35;11.77;;;7.93;;
70920;SDS011;58572;48.110;19.838;2023-08-24T12:22:03;10.05;;;7.60;;
70920;SDS011;58572;48.110;19.838;2023-08-24T12:24:31;13.52;;;7.93;;
70920;SDS011;58572;48.110;19.838;2023-08-24T12:26:59;10.75;;;7.15;;
70920;SDS011;58572;48.110;19.838;2023-08-24T12:29:29;11.50;;;7.55;;
70920;SDS011;58572;48.110;19.838;2023-08-24T12:31:56;11.57;;;7.70;;
70920;SDS011;58572;48.110;19.838;2023-08-24T12:34:24;14.43;;;7.70;;
70920;SDS011;58572;48.110;19.838;2023-08-24T12:36:51;11.82;;;7.57;;
70920;SDS011;58572;48.110;19.838;2023-08-24T12:39:18;9.38;;;7.30;;
70920;SDS011;58572;48.110;19.838;2023-08-24T12:41:47;10.27;;;7.10;;
70920;SDS011;58572;48.110;19.838;2023-08-24T12:44:14;10.05;;;7.50;;
70920;SDS011;58572;48.110;19.838;2023-08-24T12:46:41;11.75;;;7.57;;
70920;SDS011;58572;48.110;19.838;2023-08-24T12:49:08;10.45;;;6.72;;
70920;SDS011;58572;48.110;19.838;2023-08-24T12:51:35;10.00;;;6.75;;
70920;SDS011;58572;48.110;19.838;2023-08-24T12:54:04;11.77;;;7.00;;
70920;SDS011;58572;48.110;19.838;2023-08-24T12:56:32;8.15;;;5.97;;
70920;SDS011;58572;48.110;19.838;2023-08-24T12:59:02;9.93;;;6.93;;
70920;SDS011;58572;48.110;19.838;2023-08-24T13:01:29;8.95;;;6.07;;
70920;SDS011;58572;48.110;19.838;2023-08-24T13:03:56;7.85;;;5.75;;
70920;SDS011;58572;48.110;19.838;2023-08-24T13:06:23;11.23;;;7.45;;
70920;SDS011;58572;48.110;19.838;2023-08-24T13:08:52;8.50;;;6.00;;
70920;SDS011;58572;48.110;19.838;2023-08-24T13:11:20;9.18;;;6.20;;
70920;SDS011;58572;48.110;19.838;2023-08-24T13:13:48;8.32;;;6.25;;
70920;SDS011;58572;48.110;19.838;2023-08-24T13:16:16;8.93;;;5.82;;
70920;SDS011;58572;48.110;19.838;2023-08-24T13:18:44;9.63;;;5.85;;
70920;SDS011;58572;48.110;19.838;2023-08-24T13:21:11;8.07;;;5.30;;
70920;SDS011;58572;48.110;19.838;2023-08-24T13:23:38;9.02;;;5.97;;
70920;SDS011;58572;48.110;19.838;2023-08-24T13:26:05;10.57;;;5.95;;
70920;SDS011;58572;48.110;19.838;2023-08-24T13:28:43;8.05;;;5.60;;
70920;SDS011;58572;48.110;19.838;2023-08-24T13:31:10;8.85;;;6.18;;
70920;SDS011;58572;48.110;19.838;2023-08-24T13:33:39;8.13;;;5.80;;
70920;SDS011;58572;48.110;19.838;2023-08-24T13:36:06;7.95;;;5.60;;
70920;SDS011;58572;48.110;19.838;2023-08-24T13:38:33;8.75;;;6.03;;
70920;SDS011;58572;48.110;19.838;2023-08-24T13:43:29;7.30;;;5.45;;
70920;SDS011;58572;48.110;19.838;2023-08-24T13:45:56;8.13;;;5.07;;
70920;SDS011;58572;48.110;19.838;2023-08-24T13:48:23;9.90;;;5.53;;
70920;SDS011;58572;48.110;19.838;2023-08-24T13:50:52;8.10;;;4.75;;
70920;SDS011;58572;48.110;19.838;2023-08-24T13:53:19;7.70;;;5.45;;
70920;SDS011;58572;48.110;19.838;2023-08-24T13:55:47;7.97;;;5.25;;
70920;SDS011;58572;48.110;19.838;2023-08-24T13:58:14;7.00;;;4.93;;
70920;SDS011;58572;48.110;19.838;2023-08-24T14:00:41;7.85;;;5.30;;
70920;SDS011;58572;48.110;19.838;2023-08-24T14:03:09;8.40;;;5.40;;
70920;SDS011;58572;48.110;19.838;2023-08-24T14:05:38;6.43;;;4.90;;
70920;SDS011;58572;48.110;19.838;2023-08-24T14:08:07;9.13;;;5.20;;
70920;SDS011;58572;48.110;19.838;2023-08-24T14:10:34;9.77;;;5.47;;
70920;SDS011;58572;48.110;19.838;2023-08-24T14:15:28;8.57;;;4.95;;
70920;SDS011;58572;48.110;19.838;2023-08-24T14:17:57;9.98;;;5.13;;
70920;SDS011;58572;48.110;19.838;2023-08-24T14:20:24;8.63;;;4.80;;
70920;SDS011;58572;48.110;19.838;2023-08-24T14:22:52;9.02;;;4.65;;
70920;SDS011;58572;48.110;19.838;2023-08-24T14:25:21;8.68;;;4.82;;
70920;SDS011;58572;48.110;19.838;2023-08-24T14:27:48;7.20;;;4.57;;
70920;SDS011;58572;48.110;19.838;2023-08-24T14:30:16;6.50;;;4.50;;
70920;SDS011;58572;48.110;19.838;2023-08-24T14:32:43;7.15;;;4.47;;
70920;SDS011;58572;48.110;19.838;2023-08-24T14:35:10;8.27;;;4.80;;
70920;SDS011;58572;48.110;19.838;2023-08-24T14:37:38;9.00;;;4.80;;
70920;SDS011;58572;48.110;19.838;2023-08-24T14:40:06;8.88;;;4.40;;
70920;SDS011;58572;48.110;19.838;2023-08-24T14:42:36;9.00;;;4.80;;
70920;SDS011;58572;48.110;19.838;2023-08-24T14:45:04;8.23;;;4.55;;
70920;SDS011;58572;48.110;19.838;2023-08-24T14:47:32;6.80;;;4.18;;
70920;SDS011;58572;48.110;19.838;2023-08-24T14:49:59;7.57;;;4.35;;
70920;SDS011;58572;48.110;19.838;2023-08-24T14:52:26;6.50;;;4.35;;
70920;SDS011;58572;48.110;19.838;2023-08-24T14:54:54;6.78;;;4.70;;
70920;SDS011;58572;48.110;19.838;2023-08-24T14:59:50;7.75;;;4.47;;
70920;SDS011;58572;48.110;19.838;2023-08-24T15:02:17;7.60;;;4.35;;
70920;SDS011;58572;48.110;19.838;2023-08-24T15:04:44;7.05;;;4.78;;
70920;SDS011;58572;48.110;19.838;2023-08-24T15:07:11;7.43;;;4.40;;
70920;SDS011;58572;48.110;19.838;2023-08-24T15:09:39;10.10;;;4.95;;
70920;SDS011;58572;48.110;19.838;2023-08-24T15:12:06;9.75;;;4.70;;
70920;SDS011;58572;48.110;19.838;2023-08-24T15:14:33;8.18;;;5.15;;
70920;SDS011;58572;48.110;19.838;2023-08-24T15:19:29;8.57;;;4.55;;
70920;SDS011;58572;48.110;19.838;2023-08-24T15:21:56;8.13;;;4.20;;
70920;SDS011;58572;48.110;19.838;2023-08-24T15:24:23;10.18;;;5.03;;
70920;SDS011;58572;48.110;19.838;2023-08-24T15:29:17;9.10;;;4.15;;
70920;SDS011;58572;48.110;19.838;2023-08-24T15:34:13;7.93;;;4.47;;
70920;SDS011;58572;48.110;19.838;2023-08-24T15:36:40;8.48;;;4.70;;
70920;SDS011;58572;48.110;19.838;2023-08-24T15:41:34;15.70;;;4.80;;
70920;SDS011;58572;48.110;19.838;2023-08-24T15:46:28;9.45;;;4.72;;
70920;SDS011;58572;48.110;19.838;2023-08-24T15:48:55;7.95;;;4.70;;
70920;SDS011;58572;48.110;19.838;2023-08-24T15:51:25;8.23;;;4.53;;
70920;SDS011;58572;48.110;19.838;2023-08-24T15:53:52;8.68;;;5.40;;
70920;SDS011;58572;48.110;19.838;2023-08-24T15:56:21;9.27;;;4.75;;
70920;SDS011;58572;48.110;19.838;2023-08-24T15:58:48;7.40;;;5.07;;
70920;SDS011;58572;48.110;19.838;2023-08-24T16:03:42;8.48;;;5.05;;
70920;SDS011;58572;48.110;19.838;2023-08-24T16:06:09;7.28;;;5.05;;
70920;SDS011;58572;48.110;19.838;2023-08-24T16:08:38;7.47;;;5.00;;
70920;SDS011;58572;48.110;19.838;2023-08-24T16:11:05;7.68;;;4.60;;
70920;SDS011;58572;48.110;19.838;2023-08-24T16:15:59;6.95;;;4.43;;
70920;SDS011;58572;48.110;19.838;2023-08-24T16:18:26;6.97;;;4.40;;
70920;SDS011;58572;48.110;19.838;2023-08-24T16:20:53;8.40;;;4.85;;
70920;SDS011;58572;48.110;19.838;2023-08-24T16:25:49;7.82;;;4.53;;
70920;SDS011;58572;48.110;19.838;2023-08-24T16:28:16;6.63;;;4.63;;
70920;SDS011;58572;48.110;19.838;2023-08-24T16:30:45;9.35;;;4.80;;